Terminal Aerodrome Forecast
Issued by NWS

Home | Current Version | Previous Version | Text Only | Print | Product List | Glossary On
Versions: 1 2 3 4 5 6 7 8 9 10 11 12 13 14 15 16 17
000
FTUS42 KILM 011400 AAA
TAFCRE
TAF AMD
KCRE 011400Z 0114/0212 14008KT 1/4SM +SHRA BKN016 BKN060
     FM011430 12006KT 6SM -SHRA BKN020
     FM011700 12008KT 5SM -SHRA BKN030 BKN040
     FM012200 15007KT P6SM VCSH BKN035=

USA.gov is the U.S. government's official web portal to all federal, state and local government web resources and services.